Terminal Aerodrome Forecast
Issued by NWS

Home | Current Version | Previous Version | Text Only | Print | Product List | Glossary On
Versions: 1 2 3 4 5 6 7 8 9 10 11 12 13 14 15
000
FTUS41 KRNK 242330
TAFBCB
TAF
KBCB 242330Z 2500/2524 00000KT P6SM SCT250
     FM251400 27007KT P6SM BKN120
     FM251800 28010G19KT P6SM BKN060
     FM252200 29009G18KT P6SM BKN030=

USA.gov is the U.S. government's official web portal to all federal, state and local government web resources and services.